Terminal Aerodrome Forecast
Issued by NWS

Home | Current Version | Previous Version | Text Only | Print | Product List | Glossary On
Versions: 1 2 3 4 5 6 7 8 9 10 11 12 13 14 15 16 17 18 19 20 21 22 23 24 25 26 27 28 29 30 31 32 33 34 35 36 37 38 39 40 41 42 43 44 45 46 47 48 49
117
FTUS43 KLOT 131743
TAFGYY
TAF
KGYY 131743Z 1318/1418 31008KT P6SM SKC
     FM132300 VRB03KT P6SM SKC
     FM141000 16005KT P6SM OVC120
     FM141400 15013G20KT P6SM BKN035 OVC060
     FM141700 15014G18KT 2SM -SN OVC012=

USA.gov is the U.S. government's official web portal to all federal, state and local government web resources and services.